Aérodrome :
LOGIN :

S'inscrire | Disclaimer

   EN    FR    IT 

 










Légende :    VFR   VFR Marginal   IFR   IFR Intensif   IFR Très Intensif
Visi : 
Plafond : 
>= 8 km
>= 3000ft
5 à 8 km
1000 à 3000 ft
1500m à 5 km
500 à 1000 ft
800 à 1500m
200 à 500 ft
< 800m
< 200 ft
Symboles :   Orages  Brouillard  Fortes neiges  Fortes précipitations  Vent > 20 kt
SIGMETs :   Divers  Orages  Givrage  Turbulence  Onde Orograph.  Cendres Volcan.






- Altitude de l'aérodrome : 499 ft
- Code IATA : TLS


LFBO - Toulouse / Blagnac

DERNIER METAR :
  • 130900Z AUTO 30006KT 9999 BKN007 OVC058 09/08 Q1009 BECMG SCT030

METARs EXPIRÉS :
  • 130830Z AUTO 30005KT 9999 BKN007 BKN045 BKN056 09/08 Q1008 BECMG SCT030
  • 130800Z AUTO 31006KT 270V330 9999 BKN006 BKN044 OVC054 08/08 Q1008 BECMG SCT030
  • 130730Z AUTO 31006KT 9999 SCT006 BKN047 BKN058 08/08 Q1008 NOSIG
  • 130700Z AUTO 31006KT 9999 SCT046 OVC058 08/08 Q1007 TEMPO 1200 BR BKN002

TAF AMD TAF LFBO
Valide du 13 à 08h jusqu'au 14 à 12h UTC


130815Z 1308/1412 VRB02KT 9999 BKN030
TEMPO 1308/1309 2500 BR BKN005
PROB30
TEMPO 1308/1309 1200 BR BKN002
BECMG 1309/1310 30010KT SCT030
BECMG 1318/1320 20006KT
TEMPO 1401/1412 VRB03KT 4000 -RA BKN013 BKN025
ATIS : +33 5 62 74 66 36



MET'MAP, la Météo Aéronautique d'un coup d'oeil ! - Copyright ORBIFLY Décembre 2007 - Disclaimer

ORBIFLY MET'MAP TEAM :

Programmation & Développement : Alexandra Zaïnal
Conception & Développement : Baudouin d'Aumeries
Co-Programmation & Développement : Marc-Olivier Méhu
Soutien technique & logistique : Manuel Goepfert

Contact : metmap@orbifly.com




SOURCES & CREDITS :

   NOAA